createdAt,value
2019-03-30T00:01:17.515Z,78.01
2019-03-30T00:03:48.233Z,79.72
2019-03-30T00:06:19.621Z,79.36
2019-03-30T00:08:50.547Z,78.85
2019-03-30T00:11:21.681Z,78.62
2019-03-30T00:13:52.123Z,79.04
2019-03-30T00:16:22.747Z,85.31
2019-03-30T00:18:53.895Z,85.31
2019-03-30T00:21:24.824Z,81.41
2019-03-30T00:23:55.626Z,79.55
2019-03-30T00:26:27.464Z,78.79
2019-03-30T00:28:58.274Z,79.08
2019-03-30T00:31:29.208Z,79.66
2019-03-30T00:34:00.083Z,78.14
2019-03-30T00:36:31.065Z,78.04
2019-03-30T00:39:05.429Z,77.85
2019-03-30T00:41:36.913Z,77.71
2019-03-30T00:44:09.615Z,78.09
2019-03-30T00:46:40.482Z,78.35
2019-03-30T00:49:12.778Z,78.66
2019-03-30T00:51:43.811Z,78.71
2019-03-30T00:54:14.552Z,84.58
2019-03-30T00:56:45.978Z,85.66
2019-03-30T00:59:17.198Z,82.18
2019-03-30T01:01:47.917Z,81.38
2019-03-30T01:04:18.588Z,80.08
2019-03-30T01:06:50.927Z,79.23
2019-03-30T01:09:21.671Z,80.76
2019-03-30T01:11:52.513Z,81.08
2019-03-30T01:14:23.106Z,82.34
2019-03-30T01:16:54.492Z,81.81
2019-03-30T01:19:25.777Z,81.15
2019-03-30T01:21:58.587Z,80.84
2019-03-30T01:24:29.993Z,80.68
2019-03-30T01:27:00.930Z,81.30
2019-03-30T01:29:31.870Z,83.07
2019-03-30T01:32:03.221Z,80.81
2019-03-30T01:34:34.517Z,79.95
2019-03-30T01:37:06.411Z,80.52
2019-03-30T01:39:37.775Z,80.31
2019-03-30T01:42:08.970Z,81.28
2019-03-30T01:44:41.334Z,81.53
2019-03-30T01:47:12.369Z,84.96
2019-03-30T01:49:42.820Z,83.61
2019-03-30T01:52:14.221Z,80.37
2019-03-30T01:54:45.336Z,80.21
2019-03-30T01:57:16.888Z,81.44
2019-03-30T02:00:09.965Z,82.29
2019-03-30T02:02:41.655Z,81.69
2019-03-30T02:05:16.081Z,82.12
2019-03-30T02:07:48.583Z,82.97
2019-03-30T02:10:43.222Z,82.34
2019-03-30T02:13:14.417Z,81.25
2019-03-30T02:15:46.797Z,80.51
2019-03-30T02:18:19.128Z,81.59
2019-03-30T02:20:49.996Z,81.82
2019-03-30T02:23:22.014Z,83.77
2019-03-30T02:25:52.605Z,82.63
2019-03-30T02:28:24.257Z,82.54
2019-03-30T02:30:55.029Z,82.57
2019-03-30T02:33:25.567Z,83.93
2019-03-30T02:35:57.144Z,84.99
2019-03-30T02:38:27.983Z,85.92
2019-03-30T02:40:58.675Z,86.23
2019-03-30T02:43:29.531Z,87.31
2019-03-30T02:46:01.248Z,88.09
2019-03-30T02:48:31.668Z,88.46
2019-03-30T02:51:02.402Z,89.02
2019-03-30T02:53:33.010Z,89.24
2019-03-30T02:56:04.060Z,89.32
2019-03-30T02:58:34.708Z,89.15
2019-03-30T03:01:05.397Z,88.00
2019-03-30T03:03:35.987Z,85.16
2019-03-30T03:06:06.673Z,85.03
2019-03-30T03:08:37.723Z,85.17
2019-03-30T03:11:08.177Z,87.02
2019-03-30T03:13:38.758Z,86.56
2019-03-30T03:16:09.465Z,84.32
2019-03-30T03:18:39.928Z,84.01
2019-03-30T03:21:10.552Z,84.17
2019-03-30T03:23:43.036Z,83.94
2019-03-30T03:26:13.739Z,83.00
2019-03-30T03:28:44.601Z,82.56
2019-03-30T03:31:15.060Z,84.00
2019-03-30T03:33:46.381Z,80.82
2019-03-30T03:36:20.090Z,81.04
2019-03-30T03:38:50.863Z,80.65
2019-03-30T03:41:21.954Z,81.53
2019-03-30T03:43:52.521Z,82.38
2019-03-30T03:46:23.121Z,83.51
2019-03-30T03:48:53.603Z,82.46
2019-03-30T03:51:26.141Z,81.67
2019-03-30T03:53:56.799Z,80.95
2019-03-30T03:56:27.273Z,81.32
2019-03-30T03:58:58.511Z,81.19
2019-03-30T04:01:28.922Z,80.95
2019-03-30T04:03:59.726Z,83.02
2019-03-30T04:06:31.995Z,81.90
2019-03-30T04:09:04.609Z,80.91
2019-03-30T04:11:35.585Z,81.26
2019-03-30T04:14:06.237Z,80.97
2019-03-30T04:16:36.938Z,80.83
2019-03-30T04:19:07.582Z,82.82
2019-03-30T04:21:44.208Z,82.59
2019-03-30T04:24:10.535Z,82.74
2019-03-30T04:26:41.883Z,80.82
2019-03-30T04:29:12.404Z,80.46
2019-03-30T04:31:43.062Z,80.47
2019-03-30T04:34:13.851Z,83.57
2019-03-30T04:36:44.493Z,84.55
2019-03-30T04:39:15.021Z,82.24
2019-03-30T04:41:45.851Z,81.34
2019-03-30T04:44:16.280Z,80.56
2019-03-30T04:46:46.901Z,82.37
2019-03-30T04:49:17.653Z,83.72
2019-03-30T04:51:57.440Z,84.32
2019-03-30T04:54:21.986Z,84.31
2019-03-30T04:56:52.492Z,84.96
2019-03-30T04:59:23.094Z,83.58
2019-03-30T05:01:53.842Z,82.37
2019-03-30T05:04:25.333Z,83.12
2019-03-30T05:06:56.061Z,84.30
2019-03-30T05:09:26.651Z,83.50
2019-03-30T05:11:57.344Z,83.56
2019-03-30T05:14:27.890Z,80.64
2019-03-30T05:16:58.952Z,81.03
2019-03-30T05:19:30.102Z,80.78
2019-03-30T05:22:11.567Z,80.83
2019-03-30T05:24:32.999Z,80.74
2019-03-30T05:27:04.533Z,79.16
2019-03-30T05:29:35.024Z,81.57
2019-03-30T05:32:05.659Z,83.47
2019-03-30T05:34:36.518Z,83.34
2019-03-30T05:37:07.039Z,81.49
2019-03-30T05:39:37.877Z,81.77
2019-03-30T05:42:08.352Z,82.26
2019-03-30T05:44:38.880Z,82.07
2019-03-30T05:47:09.271Z,81.95
2019-03-30T05:49:40.315Z,81.44
2019-03-30T05:52:25.531Z,81.30
2019-03-30T05:54:43.609Z,80.93
2019-03-30T05:57:15.030Z,81.92
2019-03-30T05:59:45.831Z,81.58
2019-03-30T06:02:16.644Z,81.81
2019-03-30T06:04:47.664Z,81.89
2019-03-30T06:07:18.298Z,82.31
2019-03-30T06:09:49.353Z,82.36
2019-03-30T06:12:20.220Z,80.87
2019-03-30T06:14:50.934Z,81.18
2019-03-30T06:17:22.025Z,80.26
2019-03-30T06:19:52.613Z,77.65
2019-03-30T06:22:23.060Z,77.79
2019-03-30T06:24:53.591Z,79.00
2019-03-30T06:27:24.997Z,79.08
2019-03-30T06:30:17.618Z,79.78
2019-03-30T06:32:48.019Z,81.42
2019-03-30T06:35:18.651Z,81.20
2019-03-30T06:37:49.181Z,81.04
2019-03-30T06:40:20.484Z,80.50
2019-03-30T06:42:51.279Z,79.62
2019-03-30T06:45:21.933Z,80.65
2019-03-30T06:47:52.724Z,80.47
2019-03-30T06:50:24.752Z,80.17
2019-03-30T06:52:58.667Z,77.81
2019-03-30T06:55:28.155Z,80.16
2019-03-30T06:57:58.798Z,80.09
2019-03-30T07:00:32.926Z,81.25
2019-03-30T07:03:04.883Z,80.59
2019-03-30T07:05:41.531Z,80.98
2019-03-30T07:08:13.917Z,74.62
2019-03-30T07:10:45.922Z,73.12
2019-03-30T07:13:16.694Z,67.81
2019-03-30T07:15:50.154Z,60.08
2019-03-30T07:18:22.371Z,56.33
2019-03-30T07:20:53.373Z,54.48
2019-03-30T07:23:24.128Z,51.63
2019-03-30T07:25:55.178Z,50.64
2019-03-30T07:28:27.973Z,49.81
2019-03-30T07:30:58.601Z,47.58
2019-03-30T07:33:29.553Z,45.65
2019-03-30T07:36:00.410Z,43.73
2019-03-30T07:38:31.219Z,43.73
2019-03-30T07:41:02.270Z,43.04
2019-03-30T07:43:32.765Z,43.94
2019-03-30T07:46:03.486Z,42.81
2019-03-30T07:48:34.677Z,40.13
2019-03-30T07:51:05.183Z,41.04
2019-03-30T07:53:44.315Z,40.01
2019-03-30T07:56:09.769Z,38.99
2019-03-30T07:58:40.360Z,40.02
2019-03-30T08:01:11.069Z,39.67
2019-03-30T08:03:41.777Z,39.26
2019-03-30T08:06:13.286Z,39.29
2019-03-30T08:08:44.187Z,38.25
2019-03-30T08:11:14.980Z,37.66
2019-03-30T08:13:45.682Z,38.59
2019-03-30T08:16:16.368Z,37.52
2019-03-30T08:18:47.188Z,39.39
2019-03-30T08:21:17.952Z,40.47
2019-03-30T08:23:50.364Z,38.13
2019-03-30T08:26:21.520Z,37.59
2019-03-30T08:28:53.737Z,36.41
2019-03-30T08:31:25.097Z,35.88
2019-03-30T08:33:56.165Z,35.64
2019-03-30T08:36:29.727Z,37.61
2019-03-30T08:39:00.274Z,36.37
2019-03-30T08:41:31.204Z,37.51
2019-03-30T08:44:02.439Z,34.78
2019-03-30T08:46:33.482Z,33.66
2019-03-30T08:49:04.626Z,32.02
2019-03-30T08:51:35.458Z,33.46
2019-03-30T08:54:06.013Z,34.33
2019-03-30T08:56:36.658Z,33.01
2019-03-30T08:59:07.239Z,33.75
2019-03-30T09:01:38.068Z,34.96
2019-03-30T09:04:08.622Z,32.06
2019-03-30T09:06:39.380Z,32.82
2019-03-30T09:09:10.128Z,33.07
2019-03-30T09:11:43.451Z,32.81
2019-03-30T09:14:13.593Z,33.81
2019-03-30T09:16:44.475Z,32.98
2019-03-30T09:19:16.978Z,32.68
2019-03-30T09:21:47.910Z,31.54
2019-03-30T09:24:18.585Z,33.35
2019-03-30T09:26:49.213Z,32.56
2019-03-30T09:29:20.644Z,30.18
2019-03-30T09:31:52.072Z,29.98
2019-03-30T09:34:22.556Z,31.46
2019-03-30T09:36:55.073Z,31.43
2019-03-30T09:39:26.690Z,30.74
2019-03-30T09:41:58.344Z,31.40
2019-03-30T09:44:29.518Z,33.72
2019-03-30T09:47:00.100Z,33.78
2019-03-30T09:49:31.248Z,31.89
2019-03-30T09:52:02.463Z,31.04
2019-03-30T09:54:33.338Z,32.14
2019-03-30T09:57:04.047Z,32.02
2019-03-30T09:59:35.109Z,32.69
2019-03-30T10:02:05.780Z,32.46
2019-03-30T10:04:37.135Z,31.24
2019-03-30T10:07:07.752Z,30.76
2019-03-30T10:09:39.052Z,31.50
2019-03-30T10:12:10.875Z,32.19
2019-03-30T10:14:42.066Z,31.17
2019-03-30T10:17:15.217Z,31.00
2019-03-30T10:20:03.685Z,32.05
2019-03-30T10:22:23.706Z,32.90
2019-03-30T10:24:58.377Z,32.80
2019-03-30T10:27:28.356Z,32.33
2019-03-30T10:29:59.931Z,33.28
2019-03-30T10:32:31.764Z,31.58
2019-03-30T10:35:02.919Z,33.02
2019-03-30T10:37:34.720Z,34.16
2019-03-30T10:40:07.616Z,32.07
2019-03-30T10:42:38.202Z,32.32
2019-03-30T10:45:09.077Z,30.75
2019-03-30T10:47:39.872Z,32.98
2019-03-30T10:50:11.016Z,30.90
2019-03-30T10:52:42.101Z,31.03
2019-03-30T10:55:12.732Z,32.62
2019-03-30T10:57:43.579Z,32.43
2019-03-30T11:00:17.357Z,31.31
2019-03-30T11:02:52.694Z,31.73
2019-03-30T11:05:23.877Z,31.95
2019-03-30T11:07:54.521Z,30.99
2019-03-30T11:10:25.007Z,30.26
2019-03-30T11:12:56.841Z,29.78
2019-03-30T11:15:27.510Z,29.20
2019-03-30T11:17:57.988Z,30.75
2019-03-30T11:20:28.707Z,31.36
2019-03-30T11:22:59.503Z,29.40
2019-03-30T11:25:30.245Z,30.67
2019-03-30T11:28:00.753Z,32.34
2019-03-30T11:30:32.252Z,30.03
2019-03-30T11:33:03.882Z,31.40
2019-03-30T11:35:34.722Z,31.54
2019-03-30T11:38:05.543Z,33.25
2019-03-30T11:40:36.970Z,33.50
2019-03-30T11:43:07.748Z,32.89
2019-03-30T11:45:38.326Z,32.32
2019-03-30T11:51:00.565Z,33.57
2019-03-30T11:53:32.298Z,32.81
2019-03-30T11:56:07.223Z,33.29
2019-03-30T11:58:38.414Z,33.84
2019-03-30T12:01:09.152Z,32.65
2019-03-30T12:03:41.479Z,33.72
2019-03-30T12:06:12.388Z,33.85
2019-03-30T12:08:44.424Z,34.41
2019-03-30T12:11:15.114Z,34.46
2019-03-30T12:13:45.808Z,34.58
2019-03-30T12:16:16.477Z,35.63
2019-03-30T12:18:47.039Z,34.88
2019-03-30T12:21:19.260Z,35.76
2019-03-30T12:23:49.778Z,33.75
2019-03-30T12:26:20.551Z,35.72
2019-03-30T12:28:51.233Z,35.26
2019-03-30T12:31:23.707Z,34.39
2019-03-30T12:33:54.447Z,35.27
2019-03-30T12:36:25.035Z,34.58
2019-03-30T12:38:56.854Z,35.38
2019-03-30T12:41:27.576Z,35.79
2019-03-30T12:43:58.434Z,36.47
2019-03-30T12:46:32.734Z,35.84
2019-03-30T12:49:03.529Z,34.79
2019-03-30T12:51:34.439Z,34.13
2019-03-30T12:54:05.160Z,35.13
2019-03-30T12:56:35.668Z,34.12
2019-03-30T12:59:06.369Z,35.18
2019-03-30T13:01:37.074Z,35.97
2019-03-30T13:04:07.865Z,34.86
2019-03-30T13:06:38.832Z,34.10
2019-03-30T13:09:09.648Z,35.37
2019-03-30T13:11:42.077Z,35.26
2019-03-30T13:14:12.736Z,34.72
2019-03-30T13:16:43.339Z,35.67
2019-03-30T13:19:13.795Z,36.12
2019-03-30T13:21:52.608Z,35.21
2019-03-30T13:24:17.946Z,36.00
2019-03-30T13:26:51.568Z,35.88
2019-03-30T13:29:22.342Z,34.92
2019-03-30T13:31:52.744Z,35.42
2019-03-30T13:34:23.361Z,35.06
2019-03-30T13:36:53.832Z,34.53
2019-03-30T13:39:24.455Z,34.84
2019-03-30T13:41:55.446Z,36.41
2019-03-30T13:44:26.100Z,37.84
2019-03-30T13:46:56.584Z,37.11
2019-03-30T13:49:29.663Z,35.28
2019-03-30T13:51:59.272Z,35.52
2019-03-30T13:54:29.781Z,35.80
2019-03-30T13:57:00.809Z,36.14
2019-03-30T13:59:33.726Z,35.92
2019-03-30T14:02:05.971Z,35.29
2019-03-30T14:04:37.135Z,36.46
2019-03-30T14:07:07.759Z,36.73
2019-03-30T14:09:38.576Z,34.67
2019-03-30T14:12:10.659Z,34.46
2019-03-30T14:14:41.203Z,34.66
2019-03-30T14:17:11.855Z,34.67
2019-03-30T14:19:42.441Z,34.58
2019-03-30T14:22:12.903Z,34.35
2019-03-30T14:24:43.581Z,34.83
2019-03-30T14:27:14.928Z,35.14
2019-03-30T14:29:45.690Z,34.98
2019-03-30T14:32:17.161Z,34.50
2019-03-30T14:34:47.575Z,35.45
2019-03-30T14:37:18.344Z,34.09
2019-03-30T14:39:49.512Z,34.81
2019-03-30T14:42:20.263Z,34.70
2019-03-30T14:44:51.637Z,34.51
2019-03-30T14:47:22.127Z,34.11
2019-03-30T14:49:54.547Z,33.12
2019-03-30T14:52:25.158Z,33.94
2019-03-30T14:54:55.945Z,35.03
2019-03-30T14:57:26.464Z,33.73
2019-03-30T14:59:57.172Z,34.66
2019-03-30T15:02:27.741Z,34.24
2019-03-30T15:05:00.969Z,33.50
2019-03-30T15:07:31.062Z,34.23
2019-03-30T15:10:01.753Z,33.29
2019-03-30T15:12:32.467Z,33.95
2019-03-30T15:15:03.186Z,34.47
2019-03-30T15:17:34.189Z,34.36
2019-03-30T15:20:10.375Z,35.46
2019-03-30T15:22:41.924Z,35.33
2019-03-30T15:25:12.703Z,36.10
2019-03-30T15:27:43.188Z,35.96
2019-03-30T15:30:16.142Z,35.19
2019-03-30T15:32:49.607Z,36.19
2019-03-30T15:35:21.392Z,35.74
2019-03-30T15:37:52.495Z,36.24
2019-03-30T15:40:23.518Z,36.26
2019-03-30T15:42:54.601Z,36.46
2019-03-30T15:45:27.128Z,36.59
2019-03-30T15:47:57.658Z,36.79
2019-03-30T15:50:28.474Z,36.93
2019-03-30T15:52:59.906Z,37.54
2019-03-30T15:55:31.314Z,38.27
2019-03-30T15:58:02.132Z,37.60
2019-03-30T16:00:32.839Z,38.25
2019-03-30T16:03:03.946Z,38.53
2019-03-30T16:05:34.611Z,38.99
2019-03-30T16:08:05.161Z,39.48
2019-03-30T16:10:35.707Z,38.86
2019-03-30T16:13:06.343Z,39.57
2019-03-30T16:15:37.581Z,40.07
2019-03-30T16:18:08.454Z,40.19
2019-03-30T16:20:38.904Z,40.77
2019-03-30T16:23:09.611Z,40.51
2019-03-30T16:25:40.599Z,41.12
2019-03-30T16:28:11.132Z,41.74
2019-03-30T16:30:41.712Z,40.81
2019-03-30T16:33:15.111Z,41.73
2019-03-30T16:35:46.338Z,42.73
2019-03-30T16:38:17.172Z,43.48
2019-03-30T16:40:47.777Z,43.94
2019-03-30T16:43:18.629Z,44.63
2019-03-30T16:45:49.952Z,44.92
2019-03-30T16:48:20.848Z,45.52
2019-03-30T16:50:51.570Z,44.97
2019-03-30T16:53:22.474Z,46.18
2019-03-30T16:55:53.061Z,45.68
2019-03-30T17:00:59.506Z,47.66
2019-03-30T17:03:30.281Z,47.45
2019-03-30T17:06:00.877Z,47.10
2019-03-30T17:08:33.135Z,47.78
2019-03-30T17:11:03.886Z,47.14
2019-03-30T17:13:35.011Z,46.87
2019-03-30T17:16:05.754Z,47.53
2019-03-30T17:18:36.238Z,49.10
2019-03-30T17:21:06.845Z,48.47
2019-03-30T17:23:37.397Z,49.33
2019-03-30T17:26:07.900Z,48.61
2019-03-30T17:28:38.817Z,50.11
2019-03-30T17:31:09.820Z,50.82
2019-03-30T17:33:41.289Z,52.03
2019-03-30T17:36:13.430Z,53.01
2019-03-30T17:38:43.984Z,55.38
2019-03-30T17:41:14.630Z,56.05
2019-03-30T17:43:45.307Z,56.10
2019-03-30T17:46:17.211Z,56.67
2019-03-30T17:48:47.920Z,55.81
2019-03-30T17:51:19.030Z,55.88
2019-03-30T17:53:51.402Z,57.24
2019-03-30T17:56:22.052Z,57.06
2019-03-30T17:58:52.570Z,57.66
2019-03-30T18:01:23.261Z,57.81
2019-03-30T18:03:53.879Z,58.70
2019-03-30T18:06:24.631Z,59.14
2019-03-30T18:08:56.024Z,57.52
2019-03-30T18:11:26.813Z,58.98
2019-03-30T18:13:57.974Z,59.79
2019-03-30T18:16:29.107Z,60.33
2019-03-30T18:19:00.064Z,60.00
2019-03-30T18:21:30.972Z,61.18
2019-03-30T18:24:03.048Z,61.51
2019-03-30T18:26:36.382Z,62.73
2019-03-30T18:29:07.049Z,63.73
2019-03-30T18:31:37.817Z,63.86
2019-03-30T18:34:11.306Z,64.66
2019-03-30T18:36:41.734Z,65.33
2019-03-30T18:39:12.604Z,65.48
2019-03-30T18:41:43.382Z,66.14
2019-03-30T18:44:14.147Z,66.18
2019-03-30T18:46:45.095Z,66.00
2019-03-30T18:49:15.882Z,66.07
2019-03-30T18:51:46.450Z,66.04
2019-03-30T18:54:17.359Z,66.92
2019-03-30T18:56:48.184Z,67.04
2019-03-30T18:59:19.104Z,67.52
2019-03-30T19:01:49.624Z,67.42
2019-03-30T19:04:20.826Z,67.64
2019-03-30T19:06:51.980Z,68.55
2019-03-30T19:09:22.929Z,68.93
2019-03-30T19:11:53.687Z,68.69
2019-03-30T19:14:24.586Z,67.42
2019-03-30T19:16:55.100Z,67.60
2019-03-30T19:19:26.604Z,66.53
2019-03-30T19:21:57.228Z,65.78
2019-03-30T19:24:27.793Z,65.54
2019-03-30T19:26:58.757Z,66.16
2019-03-30T19:29:31.406Z,65.06
2019-03-30T19:32:02.628Z,65.38
2019-03-30T19:34:33.747Z,70.83
2019-03-30T19:37:04.888Z,67.96
2019-03-30T19:39:35.519Z,66.93
2019-03-30T19:42:06.170Z,65.93
2019-03-30T19:44:37.252Z,67.46
2019-03-30T19:47:08.145Z,68.37
2019-03-30T19:49:39.085Z,68.66
2019-03-30T19:52:10.301Z,66.82
2019-03-30T19:54:41.574Z,67.94
2019-03-30T19:57:12.556Z,67.11
2019-03-30T19:59:43.185Z,68.95
2019-03-30T20:02:15.244Z,69.73
2019-03-30T20:04:45.940Z,69.63
2019-03-30T20:07:18.423Z,68.89
2019-03-30T20:09:49.411Z,69.37
2019-03-30T20:12:20.236Z,69.63
2019-03-30T20:14:51.231Z,69.19
2019-03-30T20:17:21.914Z,71.18
2019-03-30T20:19:54.064Z,71.28
2019-03-30T20:22:24.897Z,71.07
2019-03-30T20:24:56.801Z,71.35
2019-03-30T20:27:28.030Z,70.54
2019-03-30T20:30:00.630Z,71.23
2019-03-30T20:32:31.277Z,71.05
2019-03-30T20:35:03.001Z,71.25
2019-03-30T20:37:33.569Z,70.82
2019-03-30T20:40:07.296Z,70.51
2019-03-30T20:42:38.521Z,70.71
2019-03-30T20:45:10.501Z,71.93
2019-03-30T20:47:41.262Z,72.37
2019-03-30T20:50:12.220Z,70.89
2019-03-30T20:52:43.734Z,71.63
2019-03-30T20:55:14.470Z,72.10
2019-03-30T20:57:46.007Z,71.66
2019-03-30T21:00:17.438Z,73.19
2019-03-30T21:02:48.204Z,74.64
2019-03-30T21:05:20.283Z,71.56
2019-03-30T21:07:51.114Z,71.65
2019-03-30T21:10:21.780Z,72.61
2019-03-30T21:12:52.729Z,72.63
2019-03-30T21:15:23.468Z,72.85
2019-03-30T21:17:55.006Z,72.72
2019-03-30T21:20:25.502Z,73.58
2019-03-30T21:22:56.980Z,73.08
2019-03-30T21:25:27.823Z,74.37
2019-03-30T21:27:58.660Z,74.76
2019-03-30T21:30:29.569Z,73.63
2019-03-30T21:33:00.186Z,73.70
2019-03-30T21:35:31.714Z,75.21
2019-03-30T21:38:02.083Z,73.74
2019-03-30T21:40:32.575Z,73.57
2019-03-30T21:43:03.130Z,72.63
2019-03-30T21:45:33.923Z,73.47
2019-03-30T21:48:04.468Z,72.75
2019-03-30T21:50:35.308Z,73.86
2019-03-30T21:53:06.000Z,74.48
2019-03-30T21:55:37.064Z,77.74
2019-03-30T21:58:08.572Z,73.31
2019-03-30T22:03:15.856Z,76.23
2019-03-30T22:05:46.359Z,73.31
2019-03-30T22:08:17.410Z,76.71
2019-03-30T22:10:48.425Z,74.44
2019-03-30T22:13:21.528Z,73.07
2019-03-30T22:15:52.784Z,72.42
2019-03-30T22:18:25.652Z,73.08
2019-03-30T22:20:56.221Z,75.14
2019-03-30T22:23:26.817Z,72.88
2019-03-30T22:25:57.469Z,72.19
2019-03-30T22:28:29.583Z,73.59
2019-03-30T22:31:00.836Z,79.82
2019-03-30T22:33:31.916Z,79.09
2019-03-30T22:36:03.384Z,79.98
2019-03-30T22:38:33.863Z,77.05
2019-03-30T22:41:05.652Z,80.54
2019-03-30T22:43:36.494Z,78.24
2019-03-30T22:46:07.720Z,77.12
2019-03-30T22:48:38.659Z,77.22
2019-03-30T22:51:09.266Z,77.66
2019-03-30T22:53:39.998Z,82.35
2019-03-30T22:56:11.385Z,82.16
2019-03-30T22:58:41.893Z,80.29
2019-03-30T23:01:14.026Z,77.53
2019-03-30T23:03:46.069Z,79.37
2019-03-30T23:06:16.634Z,78.42
2019-03-30T23:08:47.208Z,76.19
2019-03-30T23:11:17.966Z,75.74
2019-03-30T23:13:48.525Z,74.40
2019-03-30T23:16:19.055Z,74.30
2019-03-30T23:18:49.425Z,74.77
2019-03-30T23:21:19.802Z,76.49
2019-03-30T23:23:50.336Z,79.40
2019-03-30T23:26:20.788Z,80.16
2019-03-30T23:28:51.759Z,80.31
2019-03-30T23:31:22.588Z,81.13
2019-03-30T23:33:53.159Z,82.18
2019-03-30T23:36:24.497Z,80.59
2019-03-30T23:38:55.011Z,77.86
2019-03-30T23:41:25.718Z,80.64
2019-03-30T23:43:56.387Z,81.22
2019-03-30T23:46:26.851Z,82.00
2019-03-30T23:48:57.330Z,82.80
2019-03-30T23:51:28.952Z,83.94
2019-03-30T23:53:59.567Z,84.22
2019-03-30T23:56:30.412Z,80.98
2019-03-30T23:59:01.314Z,80.49
